Time;durP1;ratioP1;P1;durP2;ratioP2;P2;SDS_P1;SDS_P2;PMS_P1;PMS_P2;Temp;Humidity;BMP_temperature;BMP_pressure;BME280_temperature;BME280_humidity;BME280_pressure;Samples;Min_cycle;Max_cycle;Signal;HPM_P1;HPM_P2
2021/10/12 00:01:22;;;;;;;20.75;5.18;;;;;;;;;;4124820;28;20060;-79
2021/10/12 00:03:23;;;;;;;17.08;5.35;;;;;;;;;;4113601;28;20434;-74
2021/10/12 00:05:24;;;;;;;16.88;4.55;;;;;;;;;;4100923;28;20450;-78
2021/10/12 00:07:26;;;;;;;16.42;5.85;;;;;;;;;;4109891;28;20098;-79
2021/10/12 00:09:27;;;;;;;21.13;5.25;;;;;;;;;;4114121;28;20633;-80
2021/10/12 00:11:28;;;;;;;19.00;5.28;;;;;;;;;;4111310;28;20042;-80
2021/10/12 00:13:29;;;;;;;19.50;5.10;;;;;;;;;;4098077;28;20039;-80
2021/10/12 00:15:30;;;;;;;24.45;5.03;;;;;;;;;;4128284;28;20458;-81
2021/10/12 00:17:32;;;;;;;15.13;5.22;;;;;;;;;;4113238;28;20138;-80
2021/10/12 00:19:33;;;;;;;18.35;4.85;;;;;;;;;;4111434;28;20055;-75
2021/10/12 00:21:34;;;;;;;19.63;5.38;;;;;;;;;;4107695;28;20125;-79
2021/10/12 00:23:35;;;;;;;14.60;4.72;;;;;;;;;;4113754;28;20053;-79
2021/10/12 00:25:36;;;;;;;20.10;5.55;;;;;;;;;;4112366;28;20030;-78
2021/10/12 00:27:37;;;;;;;13.93;5.28;;;;;;;;;;4097450;28;20487;-78
2021/10/12 00:29:38;;;;;;;17.85;6.13;;;;;;;;;;4103635;28;20070;-78
2021/10/12 00:31:40;;;;;;;18.75;5.97;;;;;;;;;;4120009;28;20034;-79
2021/10/12 00:33:41;;;;;;;17.27;4.93;;;;;;;;;;4095601;28;20114;-79
2021/10/12 00:35:42;;;;;;;18.65;6.32;;;;;;;;;;4120765;28;20073;-79
2021/10/12 00:37:43;;;;;;;15.32;5.75;;;;;;;;;;4110505;28;20487;-79
2021/10/12 00:39:44;;;;;;;17.38;5.53;;;;;;;;;;4114562;28;20525;-79
2021/10/12 00:41:46;;;;;;;19.30;5.90;;;;;;;;;;4116995;28;20039;-78
2021/10/12 00:43:47;;;;;;;12.50;6.00;;;;;;;;;;4112890;28;20268;-77
2021/10/12 00:45:48;;;;;;;16.08;5.30;;;;;;;;;;4102482;28;20122;-79
2021/10/12 00:48:00;;;;;;;13.82;5.88;;;;;;;;;;4114587;28;20506;-79
2021/10/12 00:50:02;;;;;;;14.43;6.07;;;;;;;;;;4101071;28;20423;-79
2021/10/12 00:52:04;;;;;;;12.07;6.22;;;;;;;;;;4113446;28;20043;-79
2021/10/12 00:54:05;;;;;;;28.13;6.97;;;;;;;;;;4128805;28;20046;-80
2021/10/12 00:56:08;;;;;;;15.70;6.20;;;;;;;;;;4116348;28;20073;-80
2021/10/12 00:58:10;;;;;;;;;;;;;;;;;;4128122;28;20046;-79
2021/10/12 01:00:11;;;;;;;19.40;5.85;;;;;;;;;;4128240;28;19914;-78
2021/10/12 01:02:12;;;;;;;17.40;6.43;;;;;;;;;;4129942;28;20448;-80
2021/10/12 01:04:14;;;;;;;10.45;5.00;;;;;;;;;;4128332;28;20043;-79
2021/10/12 01:06:15;;;;;;;17.35;6.72;;;;;;;;;;4115593;28;20033;-79
2021/10/12 01:08:16;;;;;;;19.50;7.25;;;;;;;;;;4099870;28;20054;-79
2021/10/12 01:10:18;;;;;;;14.27;6.22;;;;;;;;;;4116879;28;20034;-80
2021/10/12 01:12:19;;;;;;;24.23;6.22;;;;;;;;;;4118769;28;20042;-80
2021/10/12 01:14:20;;;;;;;19.33;6.07;;;;;;;;;;4124162;28;20409;-79
2021/10/12 01:16:21;;;;;;;14.63;5.38;;;;;;;;;;4109554;28;20118;-78
2021/10/12 01:18:22;;;;;;;20.10;5.95;;;;;;;;;;4122114;28;20058;-80
2021/10/12 01:20:26;;;;;;;19.27;6.05;;;;;;;;;;4093700;28;20451;-78
2021/10/12 01:22:27;;;;;;;18.13;5.82;;;;;;;;;;4104576;28;20046;-77
2021/10/12 01:24:29;;;;;;;22.50;5.43;;;;;;;;;;4098779;28;20655;-79
2021/10/12 01:26:30;;;;;;;21.67;5.78;;;;;;;;;;4128032;28;20042;-78
2021/10/12 01:28:31;;;;;;;20.50;5.55;;;;;;;;;;4099261;28;20506;-79
2021/10/12 01:30:32;;;;;;;12.75;4.82;;;;;;;;;;4114808;28;20047;-79
2021/10/12 01:32:37;;;;;;;15.02;5.30;;;;;;;;;;4116370;28;20097;-79
2021/10/12 01:34:38;;;;;;;17.27;5.85;;;;;;;;;;4125479;28;20038;-80
2021/10/12 01:36:39;;;;;;;18.05;6.13;;;;;;;;;;4106202;28;20111;-79
2021/10/12 01:38:41;;;;;;;17.15;5.30;;;;;;;;;;4117120;28;20106;-80
2021/10/12 01:40:42;;;;;;;15.32;5.15;;;;;;;;;;4114711;28;20122;-80
2021/10/12 01:42:43;;;;;;;17.05;5.88;;;;;;;;;;4111686;28;20043;-80
2021/10/12 01:44:44;;;;;;;16.05;5.65;;;;;;;;;;4116310;28;20061;-80
2021/10/12 01:46:46;;;;;;;18.48;5.25;;;;;;;;;;4111158;28;20166;-80
2021/10/12 01:48:47;;;;;;;8.05;4.35;;;;;;;;;;4115781;28;20382;-79
2021/10/12 01:50:48;;;;;;;17.13;5.30;;;;;;;;;;4113751;28;20039;-80
2021/10/12 01:52:50;;;;;;;16.67;4.65;;;;;;;;;;4128297;28;20522;-81
2021/10/12 01:54:51;;;;;;;13.95;5.20;;;;;;;;;;4114563;28;20438;-80
2021/10/12 01:56:53;;;;;;;14.18;4.30;;;;;;;;;;4128590;28;20100;-78
2021/10/12 01:58:54;;;;;;;15.77;5.30;;;;;;;;;;4114401;28;20027;-80
2021/10/12 02:00:55;;;;;;;20.42;4.88;;;;;;;;;;4115821;28;20537;-81
2021/10/12 02:02:56;;;;;;;16.15;5.63;;;;;;;;;;4124119;28;20081;-79
2021/10/12 02:04:57;;;;;;;10.38;4.55;;;;;;;;;;4121253;28;20129;-78
2021/10/12 02:06:58;;;;;;;13.93;4.57;;;;;;;;;;4113240;28;20045;-80
2021/10/12 02:08:59;;;;;;;20.42;5.47;;;;;;;;;;4095908;28;20380;-79
2021/10/12 02:11:02;;;;;;;13.18;4.75;;;;;;;;;;4113103;28;20580;-79
2021/10/12 02:13:03;;;;;;;19.95;6.07;;;;;;;;;;4115215;28;20054;-80
2021/10/12 02:15:05;;;;;;;20.33;4.85;;;;;;;;;;4098049;29;20031;-79
2021/10/12 02:17:06;;;;;;;13.25;5.50;;;;;;;;;;4114888;28;20763;-80
2021/10/12 02:19:07;;;;;;;20.98;4.50;;;;;;;;;;4100969;28;20051;-79
2021/10/12 02:21:08;;;;;;;13.50;4.35;;;;;;;;;;4124675;28;20490;-80
2021/10/12 02:23:09;;;;;;;17.02;5.28;;;;;;;;;;4114072;28;20119;-79
2021/10/12 02:25:11;;;;;;;15.43;3.88;;;;;;;;;;4113838;28;20039;-80
2021/10/12 02:27:12;;;;;;;9.85;3.95;;;;;;;;;;4097908;28;20040;-80
2021/10/12 02:29:13;;;;;;;10.70;3.85;;;;;;;;;;4106498;28;20095;-81
2021/10/12 02:31:15;;;;;;;11.77;3.50;;;;;;;;;;4111525;28;20453;-80
2021/10/12 02:33:16;;;;;;;15.77;4.32;;;;;;;;;;4110204;28;20454;-80
2021/10/12 02:35:17;;;;;;;18.08;4.57;;;;;;;;;;4113292;28;20418;-81
2021/10/12 02:37:19;;;;;;;12.88;3.65;;;;;;;;;;4114750;28;20193;-79
2021/10/12 02:39:20;;;;;;;14.20;5.05;;;;;;;;;;4113862;28;20592;-79
2021/10/12 02:41:22;;;;;;;13.18;3.95;;;;;;;;;;4107620;28;20539;-81
2021/10/12 02:43:23;;;;;;;10.80;3.83;;;;;;;;;;4120518;28;20121;-80
2021/10/12 02:45:24;;;;;;;16.67;5.03;;;;;;;;;;4114402;28;20034;-81
2021/10/12 02:47:25;;;;;;;16.05;3.63;;;;;;;;;;4114171;28;20051;-80
2021/10/12 02:49:27;;;;;;;16.13;4.63;;;;;;;;;;4105014;28;20638;-79
2021/10/12 02:51:28;;;;;;;14.77;3.55;;;;;;;;;;4121782;28;20053;-80
2021/10/12 02:53:29;;;;;;;7.72;3.00;;;;;;;;;;4125450;28;20046;-81
2021/10/12 02:55:30;;;;;;;13.75;3.20;;;;;;;;;;4097595;28;20074;-81
2021/10/12 02:57:34;;;;;;;16.90;3.50;;;;;;;;;;4102047;28;20035;-80
2021/10/12 02:59:35;;;;;;;11.13;4.03;;;;;;;;;;4125493;28;20077;-81
2021/10/12 03:01:37;;;;;;;8.77;2.97;;;;;;;;;;4100524;28;20406;-80
2021/10/12 03:03:38;;;;;;;9.55;3.38;;;;;;;;;;4128859;28;20133;-77
2021/10/12 03:05:43;;;;;;;7.40;2.92;;;;;;;;;;4108003;28;20043;-81
2021/10/12 03:07:45;;;;;;;11.50;2.97;;;;;;;;;;4113504;28;20493;-79
2021/10/12 03:09:46;;;;;;;15.55;4.88;;;;;;;;;;4129383;28;20117;-81
2021/10/12 03:11:47;;;;;;;13.10;3.60;;;;;;;;;;4099552;28;20094;-80
2021/10/12 03:13:48;;;;;;;9.23;4.03;;;;;;;;;;4113093;28;20034;-81
2021/10/12 03:15:49;;;;;;;8.40;2.95;;;;;;;;;;4110380;28;20511;-81
2021/10/12 03:17:51;;;;;;;18.10;4.45;;;;;;;;;;4116093;28;20090;-81
2021/10/12 03:19:52;;;;;;;10.00;3.28;;;;;;;;;;4125756;28;20497;-80
2021/10/12 03:21:59;;;;;;;10.85;3.00;;;;;;;;;;4118170;28;20496;-80
2021/10/12 03:24:01;;;;;;;14.73;3.80;;;;;;;;;;4124303;28;20081;-79
2021/10/12 03:26:02;;;;;;;18.08;4.25;;;;;;;;;;4112765;28;21033;-80
2021/10/12 03:28:03;;;;;;;12.15;4.82;;;;;;;;;;4103325;28;20933;-81
2021/10/12 03:30:05;;;;;;;9.18;3.60;;;;;;;;;;4106902;28;20062;-80
2021/10/12 03:32:07;;;;;;;20.88;4.88;;;;;;;;;;4113638;28;20038;-79
2021/10/12 03:34:08;;;;;;;9.38;3.03;;;;;;;;;;4131047;28;20121;-81
2021/10/12 03:36:16;;;;;;;11.63;3.78;;;;;;;;;;4113098;28;20070;-81
2021/10/12 03:38:17;;;;;;;13.60;4.10;;;;;;;;;;4113378;28;20062;-80
2021/10/12 03:40:18;;;;;;;12.30;3.90;;;;;;;;;;4112825;28;20039;-80
2021/10/12 03:42:19;;;;;;;18.33;4.70;;;;;;;;;;4113197;28;20042;-80
2021/10/12 03:44:22;;;;;;;14.82;3.67;;;;;;;;;;4111799;28;20035;-80
2021/10/12 03:46:24;;;;;;;11.53;3.80;;;;;;;;;;4114613;28;20039;-81
2021/10/12 03:48:26;;;;;;;17.00;4.33;;;;;;;;;;4113299;28;20280;-80
2021/10/12 03:50:27;;;;;;;21.17;4.03;;;;;;;;;;4123530;28;20105;-79
2021/10/12 03:52:28;;;;;;;8.23;3.25;;;;;;;;;;4082097;29;20046;-77
2021/10/12 03:54:29;;;;;;;8.75;3.55;;;;;;;;;;4113872;28;20042;-81
2021/10/12 03:56:30;;;;;;;12.82;3.50;;;;;;;;;;4113227;28;20430;-79
2021/10/12 03:58:32;;;;;;;13.30;3.80;;;;;;;;;;4111904;28;20443;-80
2021/10/12 04:00:33;;;;;;;10.10;3.63;;;;;;;;;;4113570;28;20121;-79
2021/10/12 04:02:34;;;;;;;10.63;3.58;;;;;;;;;;4106610;28;20498;-81
2021/10/12 04:04:35;;;;;;;14.27;3.40;;;;;;;;;;4113253;28;20042;-78
2021/10/12 04:06:36;;;;;;;7.35;3.38;;;;;;;;;;4112267;28;20049;-79
2021/10/12 04:08:37;;;;;;;13.13;3.50;;;;;;;;;;4113188;28;20573;-80
2021/10/12 04:10:39;;;;;;;11.00;4.47;;;;;;;;;;4102323;28;20043;-80
2021/10/12 04:12:40;;;;;;;18.77;4.78;;;;;;;;;;4106611;28;20041;-80
2021/10/12 04:14:42;;;;;;;14.35;4.15;;;;;;;;;;4118878;28;20450;-79
2021/10/12 04:16:43;;;;;;;12.50;3.97;;;;;;;;;;4119525;28;20129;-80
2021/10/12 04:18:44;;;;;;;13.65;4.07;;;;;;;;;;4111533;28;20558;-80
2021/10/12 04:20:45;;;;;;;14.50;3.72;;;;;;;;;;4134763;28;20093;-79
2021/10/12 04:22:47;;;;;;;12.80;4.43;;;;;;;;;;4117232;28;20056;-79
2021/10/12 04:24:49;;;;;;;14.63;4.90;;;;;;;;;;4119409;28;20523;-80
2021/10/12 04:26:50;;;;;;;14.45;4.22;;;;;;;;;;4117395;28;20413;-81
2021/10/12 04:28:51;;;;;;;9.02;4.25;;;;;;;;;;4120167;28;20077;-79
2021/10/12 04:30:52;;;;;;;11.57;4.40;;;;;;;;;;4118949;28;20030;-78
2021/10/12 04:32:53;;;;;;;10.85;3.83;;;;;;;;;;4119766;28;20062;-80
2021/10/12 04:34:55;;;;;;;12.90;3.75;;;;;;;;;;4117596;28;20039;-79
2021/10/12 04:36:57;;;;;;;13.25;4.10;;;;;;;;;;4101605;28;20043;-80
2021/10/12 04:38:58;;;;;;;13.95;3.78;;;;;;;;;;4131266;28;20054;-79
2021/10/12 04:40:59;;;;;;;11.25;4.20;;;;;;;;;;4116975;28;20367;-80
2021/10/12 04:43:03;;;;;;;16.10;4.45;;;;;;;;;;4128670;28;20053;-81
2021/10/12 04:45:05;;;;;;;13.00;4.15;;;;;;;;;;4130182;28;20038;-80
2021/10/12 04:47:06;;;;;;;12.65;3.42;;;;;;;;;;4118428;28;20482;-79
2021/10/12 04:49:07;;;;;;;14.48;4.38;;;;;;;;;;4113905;28;20459;-79
2021/10/12 04:51:09;;;;;;;15.65;4.43;;;;;;;;;;4117388;28;20050;-81
2021/10/12 04:53:10;;;;;;;12.93;4.38;;;;;;;;;;4100199;28;20058;-80
2021/10/12 04:55:12;;;;;;;11.50;4.90;;;;;;;;;;4117318;28;20126;-80
2021/10/12 04:57:14;;;;;;;13.63;4.53;;;;;;;;;;4123316;28;20050;-79
2021/10/12 04:59:15;;;;;;;14.73;4.45;;;;;;;;;;4123391;28;20069;-78
2021/10/12 05:01:16;;;;;;;15.45;5.88;;;;;;;;;;4116210;28;20441;-80
2021/10/12 05:03:17;;;;;;;8.50;4.97;;;;;;;;;;4117414;28;20039;-81
2021/10/12 05:05:18;;;;;;;15.30;5.32;;;;;;;;;;4114383;28;20502;-80
2021/10/12 05:07:20;;;;;;;12.93;4.68;;;;;;;;;;4133003;28;20036;-81
2021/10/12 05:09:21;;;;;;;16.42;5.47;;;;;;;;;;4118397;28;20805;-81
2021/10/12 05:11:22;;;;;;;9.18;5.30;;;;;;;;;;4118116;28;20544;-80
2021/10/12 05:13:23;;;;;;;15.25;6.28;;;;;;;;;;4106892;28;20482;-80
2021/10/12 05:15:27;;;;;;;10.77;6.72;;;;;;;;;;4127131;28;20125;-80
2021/10/12 05:17:35;;;;;;;12.45;6.05;;;;;;;;;;4118933;28;20195;-80
2021/10/12 05:19:36;;;;;;;17.08;6.78;;;;;;;;;;4130284;28;20038;-80
2021/10/12 05:21:37;;;;;;;16.23;6.75;;;;;;;;;;4133731;28;20545;-80
2021/10/12 05:23:39;;;;;;;17.77;7.43;;;;;;;;;;4115108;28;20165;-80
2021/10/12 05:25:41;;;;;;;18.52;6.97;;;;;;;;;;4115260;28;20387;-80
2021/10/12 05:27:42;;;;;;;17.45;7.40;;;;;;;;;;4114155;28;20069;-81
2021/10/12 05:29:44;;;;;;;11.73;6.65;;;;;;;;;;4129696;28;20034;-78
2021/10/12 05:31:45;;;;;;;16.20;7.78;;;;;;;;;;4132059;28;20557;-82
2021/10/12 05:33:47;;;;;;;15.00;7.70;;;;;;;;;;4135032;28;20062;-81
2021/10/12 05:35:49;;;;;;;23.35;9.32;;;;;;;;;;4132133;28;20052;-80
2021/10/12 05:37:50;;;;;;;18.30;8.90;;;;;;;;;;4130717;28;20442;-80
2021/10/12 05:39:51;;;;;;;16.67;10.00;;;;;;;;;;4115609;28;20069;-79
2021/10/12 05:41:52;;;;;;;17.52;10.27;;;;;;;;;;4115878;28;20033;-81
2021/10/12 05:43:53;;;;;;;17.58;11.25;;;;;;;;;;4109227;28;20479;-79
2021/10/12 05:45:55;;;;;;;18.35;10.82;;;;;;;;;;4119905;28;20077;-79
2021/10/12 05:47:56;;;;;;;24.27;10.63;;;;;;;;;;4125586;28;20043;-81
2021/10/12 05:49:57;;;;;;;25.42;12.23;;;;;;;;;;4109871;28;20066;-80
2021/10/12 05:52:01;;;;;;;18.17;12.63;;;;;;;;;;4113381;28;20465;-81
2021/10/12 05:54:02;;;;;;;24.80;13.27;;;;;;;;;;4098091;28;20042;-80
2021/10/12 05:56:08;;;;;;;22.30;13.13;;;;;;;;;;4112975;28;20506;-79
2021/10/12 05:58:11;;;;;;;28.40;12.98;;;;;;;;;;4107642;28;20042;-81
2021/10/12 06:00:12;;;;;;;23.67;11.90;;;;;;;;;;4102248;28;20072;-79
2021/10/12 06:02:13;;;;;;;25.45;12.50;;;;;;;;;;4124442;28;20081;-78
2021/10/12 06:04:15;;;;;;;22.65;12.88;;;;;;;;;;4098582;28;20085;-76
2021/10/12 06:06:16;;;;;;;28.30;12.65;;;;;;;;;;4125274;28;20416;-79
2021/10/12 06:08:17;;;;;;;26.92;13.48;;;;;;;;;;4113193;28;20383;-79
2021/10/12 06:10:19;;;;;;;27.92;14.18;;;;;;;;;;4094226;28;20082;-77
2021/10/12 06:12:20;;;;;;;26.02;13.52;;;;;;;;;;4128893;28;20038;-77
2021/10/12 06:14:21;;;;;;;23.40;13.38;;;;;;;;;;4114425;28;20102;-78
2021/10/12 06:16:23;;;;;;;24.13;13.55;;;;;;;;;;4116203;28;20043;-79
2021/10/12 06:18:24;;;;;;;24.15;13.60;;;;;;;;;;4113045;28;20047;-78
2021/10/12 06:20:26;;;;;;;24.98;13.10;;;;;;;;;;4125209;28;20045;-78
2021/10/12 06:22:27;;;;;;;22.30;12.50;;;;;;;;;;4132494;28;20410;-78
2021/10/12 06:24:28;;;;;;;27.20;14.30;;;;;;;;;;4113872;28;20557;-79
2021/10/12 06:26:29;;;;;;;25.60;13.38;;;;;;;;;;4116008;28;20031;-78
2021/10/12 06:28:30;;;;;;;34.78;20.58;;;;;;;;;;4117832;28;20105;-78
2021/10/12 06:30:32;;;;;;;22.80;14.48;;;;;;;;;;4113370;28;20470;-79
2021/10/12 06:32:33;;;;;;;30.05;14.80;;;;;;;;;;4113939;28;20046;-78
2021/10/12 06:34:34;;;;;;;28.35;14.02;;;;;;;;;;4114083;28;20034;-78
2021/10/12 06:36:38;;;;;;;24.08;13.68;;;;;;;;;;4111927;28;20494;-79
2021/10/12 06:38:39;;;;;;;24.40;13.27;;;;;;;;;;4097709;28;20127;-78
2021/10/12 06:40:41;;;;;;;25.10;14.60;;;;;;;;;;4093028;28;20538;-78
2021/10/12 06:42:42;;;;;;;24.83;14.05;;;;;;;;;;4122951;28;20751;-78
2021/10/12 06:44:43;;;;;;;22.20;14.38;;;;;;;;;;4130319;28;20057;-78
2021/10/12 06:46:46;;;;;;;25.55;14.30;;;;;;;;;;4101798;28;20122;-77
2021/10/12 06:48:47;;;;;;;20.95;11.82;;;;;;;;;;4113312;28;20101;-77
2021/10/12 06:50:48;;;;;;;26.13;13.38;;;;;;;;;;4139667;28;20157;-78
2021/10/12 06:52:49;;;;;;;22.50;12.38;;;;;;;;;;4111499;28;20043;-78
2021/10/12 06:54:51;;;;;;;28.98;13.55;;;;;;;;;;4106683;28;20046;-78
2021/10/12 06:56:56;;;;;;;32.40;14.55;;;;;;;;;;4127730;28;20046;-77
2021/10/12 06:58:57;;;;;;;24.60;14.02;;;;;;;;;;4099368;28;20058;-78
2021/10/12 07:00:58;;;;;;;20.05;11.77;;;;;;;;;;4114637;28;20486;-78
2021/10/12 07:03:00;;;;;;;26.48;13.18;;;;;;;;;;4114818;28;20402;-78
2021/10/12 07:05:01;;;;;;;26.60;12.23;;;;;;;;;;4128167;28;20122;-78
2021/10/12 07:07:02;;;;;;;25.15;12.43;;;;;;;;;;4108553;28;21671;-77
2021/10/12 07:09:04;;;;;;;21.02;12.85;;;;;;;;;;4111151;28;20492;-77
2021/10/12 07:11:05;;;;;;;20.52;11.52;;;;;;;;;;4113968;28;20066;-78
2021/10/12 07:13:08;;;;;;;27.08;12.88;;;;;;;;;;4129657;28;20556;-78
2021/10/12 07:15:10;;;;;;;33.53;14.35;;;;;;;;;;4129066;28;20072;-78
2021/10/12 07:17:11;;;;;;;30.38;12.70;;;;;;;;;;4110657;28;20450;-78
2021/10/12 07:19:12;;;;;;;23.52;10.20;;;;;;;;;;4111828;28;20166;-77
2021/10/12 07:21:13;;;;;;;24.65;12.60;;;;;;;;;;4104513;28;20487;-76
2021/10/12 07:23:14;;;;;;;30.67;12.55;;;;;;;;;;4112599;28;20386;-76
2021/10/12 07:25:15;;;;;;;28.70;13.20;;;;;;;;;;4123761;28;20113;-78
2021/10/12 07:27:16;;;;;;;25.77;11.55;;;;;;;;;;4110628;28;20050;-77
2021/10/12 07:29:18;;;;;;;25.02;12.85;;;;;;;;;;4111644;28;20104;-78
2021/10/12 07:31:19;;;;;;;27.25;12.95;;;;;;;;;;4111941;28;20035;-77
2021/10/12 07:33:20;;;;;;;27.23;13.40;;;;;;;;;;4112192;28;20121;-78
2021/10/12 07:35:21;;;;;;;21.60;12.40;;;;;;;;;;4111046;28;20633;-76
2021/10/12 07:37:22;;;;;;;25.02;12.45;;;;;;;;;;4112048;28;20367;-77
2021/10/12 07:39:23;;;;;;;31.50;13.73;;;;;;;;;;4096155;28;20086;-76
2021/10/12 07:41:25;;;;;;;25.10;12.98;;;;;;;;;;4110544;28;20149;-76
2021/10/12 07:43:26;;;;;;;23.33;11.43;;;;;;;;;;4111696;28;20049;-77
2021/10/12 07:45:27;;;;;;;24.02;12.98;;;;;;;;;;4110891;28;20034;-78
2021/10/12 07:47:28;;;;;;;31.17;13.48;;;;;;;;;;4111090;28;20589;-77
2021/10/12 07:49:29;;;;;;;30.38;13.27;;;;;;;;;;4112815;28;20138;-78
2021/10/12 07:51:30;;;;;;;25.20;12.15;;;;;;;;;;4127812;28;20045;-78
2021/10/12 07:53:34;;;;;;;22.35;13.23;;;;;;;;;;4128757;28;20140;-78
2021/10/12 07:55:42;;;;;;;23.95;13.18;;;;;;;;;;4114857;28;20041;-78
2021/10/12 07:57:43;;;;;;;28.23;14.07;;;;;;;;;;4112567;28;20062;-76
2021/10/12 07:59:45;;;;;;;24.10;14.43;;;;;;;;;;4114808;28;20486;-77
2021/10/12 08:01:46;;;;;;;28.50;15.55;;;;;;;;;;4113691;28;20575;-78
2021/10/12 08:03:47;;;;;;;32.35;16.95;;;;;;;;;;4112825;28;20379;-77
2021/10/12 08:05:48;;;;;;;28.15;14.65;;;;;;;;;;4108061;28;20054;-77
2021/10/12 08:07:50;;;;;;;24.92;14.52;;;;;;;;;;4111911;28;20399;-77
2021/10/12 08:09:51;;;;;;;28.88;15.90;;;;;;;;;;4111516;28;20038;-77
2021/10/12 08:11:53;;;;;;;24.65;14.15;;;;;;;;;;4113344;28;20031;-76
2021/10/12 08:13:58;;;;;;;26.33;13.68;;;;;;;;;;4112819;28;20378;-77
2021/10/12 08:16:07;;;;;;;28.13;13.93;;;;;;;;;;4125935;28;20458;-77
2021/10/12 08:18:08;;;;;;;25.85;13.20;;;;;;;;;;4111487;28;20031;-77
2021/10/12 08:20:09;;;;;;;28.33;15.82;;;;;;;;;;4106924;28;20582;-77
2021/10/12 08:22:11;;;;;;;37.47;14.35;;;;;;;;;;4113100;28;20043;-77
2021/10/12 08:24:13;;;;;;;25.23;13.98;;;;;;;;;;4103646;28;20486;-77
2021/10/12 08:26:15;;;;;;;23.38;14.23;;;;;;;;;;4111954;28;20042;-77
2021/10/12 08:28:16;;;;;;;29.90;13.30;;;;;;;;;;4111574;28;20077;-77
2021/10/12 08:30:17;;;;;;;21.55;14.07;;;;;;;;;;4110841;28;20560;-77
2021/10/12 08:32:18;;;;;;;24.20;13.98;;;;;;;;;;4118910;28;20510;-78
2021/10/12 08:34:20;;;;;;;32.05;17.40;;;;;;;;;;4127208;28;20027;-78
2021/10/12 08:36:21;;;;;;;26.70;14.30;;;;;;;;;;4127917;28;20043;-78
2021/10/12 08:38:22;;;;;;;26.58;13.35;;;;;;;;;;4096511;28;20051;-78
2021/10/12 08:40:24;;;;;;;27.85;13.18;;;;;;;;;;4110420;28;20109;-78
2021/10/12 08:42:48;;;;;;;24.33;12.57;;;;;;;;;;4108194;28;20039;-78
2021/10/12 08:44:56;;;;;;;24.38;13.23;;;;;;;;;;4124388;28;20081;-78
2021/10/12 08:46:57;;;;;;;29.52;13.38;;;;;;;;;;4111991;28;20549;-78
2021/10/12 08:49:00;;;;;;;25.38;12.93;;;;;;;;;;4111058;28;20059;-77
2021/10/12 08:51:06;;;;;;;24.73;12.30;;;;;;;;;;4113197;28;20498;-78
2021/10/12 08:53:07;;;;;;;21.73;10.90;;;;;;;;;;4123635;28;20046;-78
2021/10/12 08:55:08;;;;;;;20.55;11.50;;;;;;;;;;4125802;28;20074;-78
2021/10/12 08:57:09;;;;;;;29.13;12.85;;;;;;;;;;4122886;28;20042;-76
2021/10/12 08:59:11;;;;;;;22.15;10.88;;;;;;;;;;4098963;28;20560;-76
2021/10/12 09:01:14;;;;;;;33.38;12.80;;;;;;;;;;4131928;28;20050;-77
2021/10/12 09:03:29;;;;;;;25.55;11.05;;;;;;;;;;4126288;28;20105;-78
2021/10/12 09:05:31;;;;;;;23.13;10.70;;;;;;;;;;4115513;28;20074;-78
2021/10/12 09:07:32;;;;;;;13.77;8.60;;;;;;;;;;4115923;28;20038;-77
2021/10/12 09:09:34;;;;;;;22.92;9.25;;;;;;;;;;4098891;28;20129;-77
2021/10/12 09:11:36;;;;;;;23.65;10.50;;;;;;;;;;4120033;28;20100;-77
2021/10/12 09:13:44;;;;;;;29.70;9.25;;;;;;;;;;4112475;28;20041;-77
2021/10/12 09:16:15;;;;;;;29.15;10.18;;;;;;;;;;4129952;28;20034;-76
2021/10/12 09:18:16;;;;;;;16.10;8.77;;;;;;;;;;4116219;28;20050;-76
2021/10/12 09:20:23;;;;;;;20.27;10.23;;;;;;;;;;4114799;28;20719;-76
2021/10/12 09:22:24;;;;;;;20.55;9.65;;;;;;;;;;4115165;28;20125;-77
2021/10/12 09:24:26;;;;;;;14.85;9.15;;;;;;;;;;4110388;28;20067;-77
2021/10/12 09:26:32;;;;;;;20.75;9.85;;;;;;;;;;4130627;28;20053;-77
2021/10/12 09:28:33;;;;;;;18.50;10.88;;;;;;;;;;4130059;28;20178;-78
2021/10/12 09:30:37;;;;;;;22.77;9.48;;;;;;;;;;4100727;28;20486;-78
2021/10/12 09:32:38;;;;;;;19.35;10.02;;;;;;;;;;4127953;28;20502;-78
2021/10/12 09:34:42;;;;;;;20.77;8.27;;;;;;;;;;4121547;28;20030;-77
2021/10/12 09:36:45;;;;;;;17.55;7.40;;;;;;;;;;4129388;28;20125;-77
2021/10/12 09:38:46;;;;;;;15.20;8.73;;;;;;;;;;4112001;28;20043;-77
2021/10/12 09:40:49;;;;;;;24.83;8.57;;;;;;;;;;4113745;28;20047;-78
2021/10/12 09:42:50;;;;;;;14.70;7.28;;;;;;;;;;4130037;28;20486;-77
2021/10/12 09:44:58;;;;;;;14.18;7.53;;;;;;;;;;4114363;28;20042;-78
2021/10/12 09:47:13;;;;;;;141.98;18.05;;;;;;;;;;4114500;28;20047;-77
2021/10/12 09:49:24;;;;;;;14.57;7.40;;;14.90;99.90;;;;;;4114481;28;20038;-78
2021/10/12 09:51:25;;;;;;;15.07;6.75;;;14.90;99.90;;;;;;4128575;28;20076;-78
2021/10/12 09:53:32;;;;;;;62.97;11.57;;;15.20;99.90;;;;;;4096400;28;20035;-77
2021/10/12 09:55:36;;;;;;;11.02;5.57;;;15.80;99.90;;;;;;4114534;28;20042;-78
2021/10/12 09:57:39;;;;;;;10.95;4.90;;;16.50;99.90;;;;;;4115986;28;20033;-78
2021/10/12 09:59:41;;;;;;;12.35;3.83;;;16.90;99.90;;;;;;4125462;28;20153;-78
2021/10/12 10:01:47;;;;;;;8.57;4.53;;;16.60;99.90;;;;;;4113898;28;20060;-78
2021/10/12 10:03:48;;;;;;;7.38;3.53;;;16.50;99.90;;;;;;4113484;28;20038;-79
2021/10/12 10:05:51;;;;;;;6.28;3.00;;;16.70;99.90;;;;;;4114607;28;20035;-77
2021/10/12 10:07:55;;;;;;;8.98;3.75;;;16.70;99.90;;;;;;4126254;28;20042;-78
2021/10/12 10:10:05;;;;;;;;;;;16.40;99.90;;;;;;4106509;28;20046;-77
2021/10/12 10:12:07;;;;;;;6.05;3.20;;;15.90;99.90;;;;;;4110748;28;19950;-78
2021/10/12 10:14:10;;;;;;;5.53;2.83;;;15.40;99.90;;;;;;4111876;28;20037;-79
2021/10/12 10:16:13;;;;;;;11.05;3.28;;;15.10;99.90;;;;;;4121156;28;20043;-79
2021/10/12 10:18:17;;;;;;;9.32;2.53;;;15.00;99.90;;;;;;4109929;28;20046;-78
2021/10/12 10:20:18;;;;;;;9.82;3.40;;;15.10;99.90;;;;;;4112735;28;20091;-79
2021/10/12 10:22:42;;;;;;;9.32;3.67;;;15.10;99.90;;;;;;4111864;28;20039;-78
2021/10/12 10:24:48;;;;;;;4.43;2.72;;;15.30;99.90;;;;;;4110083;28;20787;-77
2021/10/12 10:26:50;;;;;;;6.07;2.22;;;15.90;99.90;;;;;;4114727;28;20405;-79
2021/10/12 10:28:53;;;;;;;7.07;3.20;;;16.40;99.90;;;;;;4127419;28;20061;-79
2021/10/12 10:31:00;;;;;;;4.38;2.55;;;16.60;99.90;;;;;;4111769;28;20043;-79
2021/10/12 10:33:04;;;;;;;12.80;3.40;;;16.50;99.90;;;;;;4112819;28;20034;-78
2021/10/12 10:35:12;;;;;;;17.60;4.20;;;16.10;99.90;;;;;;4123689;28;20121;-76
2021/10/12 10:37:15;;;;;;;6.03;2.70;;;15.30;99.90;;;;;;4110236;28;20031;-77
2021/10/12 10:39:37;;;;;;;7.85;3.22;;;14.70;99.90;;;;;;4113870;28;20047;-76
2021/10/12 10:41:38;;;;;;;10.13;3.25;;;14.30;99.90;;;;;;4089786;28;20074;-77
2021/10/12 10:44:01;;;;;;;8.20;3.25;;;14.00;99.90;;;;;;4094037;28;20490;-77
2021/10/12 10:46:02;;;;;;;10.18;3.38;;;13.90;99.90;;;;;;4087706;28;20035;-78
2021/10/12 10:48:04;;;;;;;9.32;3.72;;;13.70;99.90;;;;;;4111197;28;20430;-76
2021/10/12 10:50:28;;;;;;;4.90;2.83;;;13.60;99.90;;;;;;4128760;28;20046;-75
2021/10/12 10:52:50;;;;;;;5.63;3.15;;;13.50;99.90;;;;;;4113022;28;20046;-77
2021/10/12 10:55:10;;;;;;;8.45;3.00;;;13.50;99.90;;;;;;4114425;28;20038;-76
2021/10/12 10:57:12;;;;;;;7.18;3.33;;;13.60;99.90;;;;;;4126105;28;20190;-77
2021/10/12 10:59:24;;;;;;;8.98;3.45;;;13.70;99.90;;;;;;4107604;28;20034;-77
2021/10/12 11:01:36;;;;;;;7.90;2.88;;;14.00;99.90;;;;;;4101544;28;20050;-78
2021/10/12 11:03:40;;;;;;;7.13;2.35;;;14.20;99.90;;;;;;4109860;28;20099;-78
2021/10/12 11:05:48;;;;;;;4.03;2.33;;;14.40;99.90;;;;;;4127694;28;20042;-79
2021/10/12 11:07:49;;;;;;;4.88;2.30;;;14.60;99.90;;;;;;4128695;28;20038;-78
2021/10/12 11:09:52;;;;;;;3.15;1.83;;;14.80;99.90;;;;;;4115164;28;20042;-77
2021/10/12 11:11:52;;;;;;;8.35;2.42;;;14.90;99.90;;;;;;4113226;28;20035;-77
2021/10/12 11:13:53;;;;;;;3.70;2.00;;;15.10;99.90;;;;;;4125086;28;20077;-77
2021/10/12 11:15:54;;;;;;;2.80;2.00;;;15.30;99.90;;;;;;4112447;28;20042;-77
2021/10/12 11:18:05;;;;;;;3.13;1.98;;;15.80;99.90;;;;;;4123824;28;20047;-77
2021/10/12 11:20:11;;;;;;;2.22;2.05;;;16.30;99.90;;;;;;4120893;28;20485;-76
2021/10/12 11:22:16;;;;;;;1.95;1.63;;;17.00;99.90;;;;;;4126592;28;20037;-78
2021/10/12 11:24:16;;;;;;;1.80;1.70;;;17.60;99.90;;;;;;4112128;28;20113;-78
2021/10/12 11:26:23;;;;;;;2.35;1.90;;;17.50;99.90;;;;;;4119371;28;20038;-78
2021/10/12 11:28:26;;;;;;;3.55;1.70;;;17.30;99.90;;;;;;4128427;28;20416;-78
2021/10/12 11:30:34;;;;;;;1.70;1.60;;;16.90;99.90;;;;;;4113139;28;20046;-78
2021/10/12 11:32:34;;;;;;;3.20;1.90;;;16.80;99.90;;;;;;4122884;28;20051;-78
2021/10/12 11:34:36;;;;;;;6.20;2.20;;;16.80;99.90;;;;;;4126598;28;20118;-78
2021/10/12 11:36:37;;;;;;;2.03;1.80;;;17.10;99.90;;;;;;4120390;28;20115;-78
2021/10/12 11:38:49;;;;;;;2.80;1.95;;;17.00;99.90;;;;;;4082728;29;20039;-79
2021/10/12 11:40:50;;;;;;;3.78;1.67;;;17.20;99.90;;;;;;4108379;28;20059;-78
2021/10/12 11:42:56;;;;;;;2.05;1.67;;;17.70;99.90;;;;;;4102496;28;20490;-77
2021/10/12 11:44:57;;;;;;;3.40;1.80;;;17.70;99.90;;;;;;4129918;28;20050;-78
2021/10/12 11:47:02;;;;;;;1.75;1.60;;;17.10;99.90;;;;;;4116222;28;20086;-78